Terminal Aerodrome Forecast
Issued by NWS Sterling, VA

Current Version | Previous Version | Graphics & Text | Print | Product List | Glossary On
Versions: 1 2 3 4 5 6 7 8 9 10 11 12 13 14 15 16 17 18 19
000
FTUS41 KLWX 301400 AAB
TAFMRB
TAF AMD
KMRB 301403Z 3014/3112 31013G22KT P6SM SCT020 BKN040
      TEMPO 3014/3015 1SM -SN BKN025
     FM301900 31023G32KT P6SM SCT040
     FM310400 31015G21KT P6SM FEW250
     FM310800 31011KT P6SM FEW250=

USA.gov is the U.S. government's official web portal to all federal, state and local government web resources and services.